Time;durP1;ratioP1;P1;durP2;ratioP2;P2;SDS_P1;SDS_P2;PMS_P1;PMS_P2;Temp;Humidity;BMP_temperature;BMP_pressure;BME280_temperature;BME280_humidity;BME280_pressure;Samples;Min_cycle;Max_cycle;Signal;HPM_P1;HPM_P2
2021/03/06 00:05:10;;;;;;;23.85;13.60;;;;;;;0.20;100.00;100932.44;1647242;86;21250;-87
2021/03/06 00:16:24;;;;;;;24.23;13.30;;;;;;;0.05;100.00;100940.08;1677863;85;21156;-87
2021/03/06 00:23:18;;;;;;;23.22;13.13;;;;;;;-0.09;100.00;100909.28;1654178;86;21116;-87
2021/03/06 00:34:18;;;;;;;19.70;11.03;;;;;;;-0.08;100.00;100925.05;1651091;86;21185;-87
2021/03/06 00:41:10;;;;;;;25.15;14.35;;;;;;;-0.23;100.00;100928.83;1698367;84;21460;-87
2021/03/06 00:48:02;;;;;;;23.52;13.83;;;;;;;-0.34;100.00;100941.89;1702040;84;21128;-86
2021/03/06 00:54:55;;;;;;;23.52;12.45;;;;;;;-0.38;100.00;100943.28;1703905;84;21524;-86
2021/03/06 01:01:14;;;;;;;26.60;13.88;;;;;;;-0.43;100.00;100926.76;1696134;83;21369;-86
2021/03/06 01:03:42;;;;;;;24.85;14.18;;;;;;;-0.40;100.00;100924.14;1682610;83;21369;-89
2021/03/06 01:06:11;;;;;;;25.17;14.23;;;;;;;-0.38;100.00;100919.83;1705546;82;21298;-89
2021/03/06 01:08:39;;;;;;;28.67;14.70;;;;;;;-0.38;100.00;100917.27;1733329;82;21134;-89
2021/03/06 01:11:07;;;;;;;23.98;13.43;;;;;;;-0.35;100.00;100917.63;1716473;82;21155;-89
2021/03/06 01:13:35;;;;;;;24.77;13.80;;;;;;;-0.34;100.00;100912.46;1713421;81;21148;-89
2021/03/06 01:16:03;;;;;;;24.72;14.10;;;;;;;-0.33;100.00;100912.87;1719879;82;22290;-89
2021/03/06 01:18:31;;;;;;;24.87;14.03;;;;;;;-0.32;100.00;100908.58;1721071;82;21619;-90
2021/03/06 01:21:00;;;;;;;23.62;13.03;;;;;;;-0.32;100.00;100913.69;1703364;83;21192;-89
2021/03/06 01:23:28;;;;;;;23.32;12.93;;;;;;;-0.32;100.00;100914.55;1726035;82;21624;-89
2021/03/06 01:25:56;;;;;;;26.37;13.85;;;;;;;-0.30;100.00;100918.80;1732992;82;21457;-89
2021/03/06 01:28:25;;;;;;;21.10;12.73;;;;;;;-0.30;100.00;100915.78;1711046;82;22262;-89
2021/03/06 01:30:53;;;;;;;26.77;15.03;;;;;;;-0.30;100.00;100910.66;1732819;82;21534;-89
2021/03/06 01:33:21;;;;;;;24.47;12.65;;;;;;;-0.30;100.00;100918.80;1734345;81;21664;-90
2021/03/06 01:35:50;;;;;;;21.45;12.73;;;;;;;-0.31;100.00;100923.05;1744180;80;21124;-90
2021/03/06 01:38:18;;;;;;;23.10;13.38;;;;;;;-0.32;100.00;100924.79;1681128;84;21132;-90
2021/03/06 01:40:47;;;;;;;25.40;13.83;;;;;;;-0.32;100.00;100915.83;1682271;85;21481;-89
2021/03/06 01:43:17;;;;;;;23.80;13.62;;;;;;;-0.32;100.00;100914.55;1732789;82;21499;-89
2021/03/06 01:45:45;;;;;;;23.42;12.93;;;;;;;-0.33;100.00;100916.70;1740302;81;21159;-89
2021/03/06 01:48:14;;;;;;;23.67;13.25;;;;;;;-0.33;100.00;100923.11;1763245;81;21136;-89
2021/03/06 01:50:45;;;;;;;23.12;13.60;;;;;;;-0.33;100.00;100920.55;1763206;80;21131;-90
2021/03/06 01:53:15;;;;;;;21.57;12.80;;;;;;;-0.34;100.00;100918.86;1763233;81;21379;-89
2021/03/06 01:55:46;;;;;;;23.07;13.28;;;;;;;-0.36;100.00;100923.16;1763228;80;21135;-89
2021/03/06 01:58:15;;;;;;;27.17;14.50;;;;;;;-0.38;100.00;100928.78;1763287;81;21064;-89
2021/03/06 02:00:44;;;;;;;23.83;13.08;;;;;;;-0.40;100.00;100929.25;1763376;80;21040;-89
2021/03/06 02:03:12;;;;;;;24.40;14.40;;;;;;;-0.39;100.00;100930.94;1763346;80;21167;-90
2021/03/06 02:05:40;;;;;;;28.80;16.15;;;;;;;-0.37;100.00;100930.47;1763399;80;21194;-90
2021/03/06 02:08:09;;;;;;;28.62;16.85;;;;;;;-0.37;100.00;100934.31;1759710;81;21153;-89
2021/03/06 02:10:42;;;;;;;25.75;14.85;;;;;;;-0.37;100.00;100935.59;1762998;80;21104;-90
2021/03/06 02:14:04;;;;;;;28.52;16.37;;;;;;;-0.36;100.00;100941.08;1763048;80;21547;-90
2021/03/06 02:16:53;;;;;;;25.17;14.78;;;;;;;-0.36;100.00;100944.92;1762283;81;21115;-90
2021/03/06 02:20:17;;;;;;;20.92;11.55;;;;;;;-0.34;100.00;100954.69;1763566;80;21361;-90
2021/03/06 02:23:15;;;;;;;23.87;14.40;;;;;;;-0.34;100.00;100961.53;1762964;80;21152;-90
2021/03/06 02:26:00;;;;;;;22.90;13.48;;;;;;;-0.39;100.00;100973.16;1756490;80;21080;-90
2021/03/06 02:29:02;;;;;;;21.37;12.20;;;;;;;-0.43;100.00;100967.70;1760257;81;21211;-90
2021/03/06 02:31:33;;;;;;;21.60;14.43;;;;;;;-0.47;100.00;100978.90;1763445;80;21147;-91
2021/03/06 02:34:10;;;;;;;25.62;14.95;;;;;;;-0.52;100.00;100985.85;1762988;80;21663;-90
2021/03/06 02:36:47;;;;;;;23.80;13.75;;;;;;;-0.54;100.00;100996.09;1760727;81;21080;-91
2021/03/06 02:39:18;;;;;;;25.75;14.93;;;;;;;-0.56;100.00;101002.13;1760470;80;21703;-90
2021/03/06 02:41:49;;;;;;;25.65;14.50;;;;;;;-0.58;100.00;101005.15;1741981;81;21573;-90
2021/03/06 02:44:21;;;;;;;23.70;14.25;;;;;;;-0.60;100.00;100992.41;1763239;80;21120;-91
2021/03/06 02:46:50;;;;;;;22.87;12.85;;;;;;;-0.62;100.00;101004.83;1763042;80;21449;-90
2021/03/06 02:49:20;;;;;;;20.90;12.45;;;;;;;-0.67;100.00;101007.48;1762489;81;21119;-90
2021/03/06 02:51:49;;;;;;;17.95;11.28;;;;;;;-0.73;100.00;101016.13;1761867;81;21116;-90
2021/03/06 02:54:19;;;;;;;15.08;10.63;;;;;;;-0.76;100.00;101023.03;1695967;84;21256;-90
2021/03/06 02:56:48;;;;;;;20.48;9.35;;;;;;;-0.78;100.00;101033.72;1708629;83;21188;-91
2021/03/06 02:59:36;;;;;;;16.37;9.63;;;;;;;-0.82;100.00;101036.78;1761269;81;21229;-90
2021/03/06 03:02:47;;;;;;;17.23;9.28;;;;;;;-0.83;100.00;101036.38;1887267;76;22447;-90
2021/03/06 03:05:37;;;;;;;15.55;9.18;;;;;;;-0.90;100.00;101046.33;1844972;77;21121;-89
2021/03/06 03:08:10;;;;;;;18.15;10.85;;;;;;;-0.92;100.00;101045.09;1848707;77;21365;-90
2021/03/06 03:10:43;;;;;;;16.55;10.70;;;;;;;-0.92;100.00;101043.81;1845718;77;21159;-91
2021/03/06 03:13:35;;;;;;;17.55;10.50;;;;;;;-0.90;100.00;101048.88;1774353;80;21542;-90
2021/03/06 03:16:16;;;;;;;16.82;9.73;;;;;;;-0.90;100.00;101045.05;1848276;77;21163;-91
2021/03/06 03:18:50;;;;;;;17.17;9.48;;;;;;;-0.90;100.00;101043.77;1807057;77;21340;-90
2021/03/06 03:21:20;;;;;;;18.42;10.13;;;;;;;-0.91;100.00;101046.78;1848624;77;21041;-91
2021/03/06 03:23:58;;;;;;;17.00;10.08;;;;;;;-0.92;100.00;101044.26;1848575;77;21162;-91
2021/03/06 03:26:29;;;;;;;17.15;9.70;;;;;;;-0.94;100.00;101045.55;1848660;77;21155;-91
2021/03/06 03:28:59;;;;;;;16.70;9.75;;;;;;;-0.94;100.00;101040.88;1848651;77;21126;-91
2021/03/06 03:31:29;;;;;;;17.10;9.23;;;;;;;-0.97;100.00;101041.34;1848746;77;21112;-90
2021/03/06 03:33:58;;;;;;;18.17;9.68;;;;;;;-0.99;100.00;101050.75;1848783;77;22104;-90
2021/03/06 03:36:26;;;;;;;16.25;9.50;;;;;;;-1.02;100.00;101055.94;1848564;77;21091;-90
2021/03/06 03:38:55;;;;;;;17.48;9.05;;;;;;;-1.06;100.00;101060.70;1848615;77;21139;-91
2021/03/06 03:41:23;;;;;;;15.13;8.73;;;;;;;-1.09;100.00;101061.19;1848517;77;21520;-89
2021/03/06 03:43:52;;;;;;;14.80;8.68;;;;;;;-1.12;100.00;101068.04;1848588;77;21107;-90
2021/03/06 03:46:21;;;;;;;17.80;8.75;;;;;;;-1.16;100.00;101064.32;1848746;77;22283;-90
2021/03/06 03:48:50;;;;;;;12.07;7.55;;;;;;;-1.18;100.00;101063.05;1848529;77;21158;-90
2021/03/06 03:51:19;;;;;;;14.05;7.75;;;;;;;-1.20;100.00;101063.51;1848631;77;21096;-90
2021/03/06 03:53:49;;;;;;;11.45;7.58;;;;;;;-1.22;100.00;101064.41;1848655;77;21178;-90
2021/03/06 03:56:19;;;;;;;12.90;7.47;;;;;;;-1.23;100.00;101061.03;1847440;77;21546;-90
2021/03/06 03:58:48;;;;;;;13.50;6.90;;;;;;;-1.24;100.00;101054.68;1848654;77;21139;-91
2021/03/06 04:01:16;;;;;;;11.55;7.40;;;;;;;-1.26;100.00;101053.41;1849049;77;21154;-91
2021/03/06 04:03:44;;;;;;;13.75;7.15;;;;;;;-1.29;100.00;101051.76;1826284;77;21571;-91
2021/03/06 04:06:12;;;;;;;11.70;6.75;;;;;;;-1.31;100.00;101054.77;1840142;77;21106;-91
2021/03/06 04:08:40;;;;;;;9.88;6.67;;;;;;;-1.31;100.00;101063.71;1851400;77;21448;-91
2021/03/06 04:11:09;;;;;;;11.97;6.28;;;;;;;-1.35;100.00;101059.55;1827385;77;22272;-91
2021/03/06 04:13:37;;;;;;;12.13;7.00;;;;;;;-1.37;100.00;101065.11;1820765;78;21206;-91
2021/03/06 04:16:06;;;;;;;8.93;5.65;;;;;;;-1.40;100.00;101070.27;1836384;77;21108;-91
2021/03/06 04:18:35;;;;;;;10.28;6.25;;;;;;;-1.41;100.00;101076.27;1851652;77;21106;-91
2021/03/06 04:21:03;;;;;;;12.15;6.83;;;;;;;-1.43;100.00;101074.17;1827936;77;21155;-91
2021/03/06 04:23:31;;;;;;;10.88;6.65;;;;;;;-1.45;100.00;101075.48;1838503;77;21354;-91
2021/03/06 04:25:59;;;;;;;12.33;7.08;;;;;;;-1.46;100.00;101080.19;1845227;77;21186;-91
2021/03/06 04:28:27;;;;;;;12.35;6.20;;;;;;;-1.46;100.00;101074.22;1820923;78;21167;-91
2021/03/06 04:30:56;;;;;;;13.53;6.20;;;;;;;-1.47;100.00;101072.52;1820950;78;21556;-90
2021/03/06 04:33:24;;;;;;;10.90;5.17;;;;;;;-1.50;100.00;101064.48;1826365;77;21634;-91
2021/03/06 04:35:52;;;;;;;9.33;5.78;;;;;;;-1.52;100.00;101070.05;1849481;77;21570;-91
2021/03/06 04:38:20;;;;;;;11.50;5.72;;;;;;;-1.52;100.00;101060.28;1851555;77;21123;-91
2021/03/06 04:40:48;;;;;;;7.97;4.85;;;;;;;-1.52;100.00;101066.22;1851613;77;21067;-91
2021/03/06 04:43:17;;;;;;;10.58;4.92;;;;;;;-1.51;100.00;101081.13;1851560;77;21092;-90
2021/03/06 04:45:52;;;;;;;9.03;4.70;;;;;;;-1.52;100.00;101088.37;1850356;77;21167;-91
2021/03/06 04:48:19;;;;;;;8.13;4.75;;;;;;;-1.54;100.00;101089.69;1837699;77;22318;-91
2021/03/06 04:50:50;;;;;;;7.22;4.30;;;;;;;-1.54;100.00;101093.94;1821972;77;21102;-91
2021/03/06 04:53:19;;;;;;;8.83;4.85;;;;;;;-1.54;100.00;101101.19;1851773;77;21570;-91
2021/03/06 04:55:47;;;;;;;11.97;6.53;;;;;;;-1.54;100.00;101104.16;1851548;77;21170;-91
2021/03/06 04:58:14;;;;;;;11.93;5.53;;;;;;;-1.53;100.00;101110.54;1847022;77;21119;-91
2021/03/06 05:00:42;;;;;;;14.25;6.67;;;;;;;-1.50;100.00;101114.75;1838148;77;21361;-91
2021/03/06 05:03:38;;;;;;;12.85;6.20;;;;;;;-1.49;100.00;101119.82;1815183;79;21175;-92
2021/03/06 05:06:06;;;;;;;12.78;5.97;;;;;;;-1.48;100.00;101133.42;1815922;77;21162;-91
2021/03/06 05:09:03;;;;;;;10.53;5.45;;;;;;;-1.39;100.00;101129.89;1776837;79;21156;-92
2021/03/06 05:11:31;;;;;;;12.50;7.33;;;;;;;-1.24;100.00;101139.02;1827951;77;21135;-90
2021/03/06 05:14:00;;;;;;;8.63;5.42;;;;;;;-1.17;100.00;101132.47;1759706;80;21889;-90
2021/03/06 05:16:29;;;;;;;11.18;4.92;;;;;;;-1.08;100.00;101131.45;1767963;80;21139;-90
2021/03/06 05:18:59;;;;;;;8.65;5.28;;;;;;;-1.06;100.00;101136.55;1764376;80;21193;-91
2021/03/06 05:25:50;;;;;;;7.60;4.72;;;;;;;-1.08;100.00;101142.95;1829496;77;21151;-84
2021/03/06 05:28:23;;;;;;;7.22;3.83;;;;;;;-1.06;100.00;101168.06;1838536;77;22010;-85
2021/03/06 05:30:51;;;;;;;9.58;5.25;;;;;;;-1.05;100.00;101168.47;1824859;77;21139;-85
2021/03/06 05:33:20;;;;;;;8.93;4.92;;;;;;;-1.10;100.00;101174.11;1834830;77;21139;-84
2021/03/06 05:35:48;;;;;;;7.37;4.45;;;;;;;-1.19;100.00;101173.81;1838693;77;21115;-84
2021/03/06 05:38:16;;;;;;;9.45;4.28;;;;;;;-1.20;100.00;101175.13;1840240;77;21579;-86
2021/03/06 05:40:52;;;;;;;10.00;3.75;;;;;;;-1.19;100.00;101187.05;1777919;80;21372;-86
2021/03/06 05:43:22;;;;;;;5.97;3.70;;;;;;;-1.12;100.00;101195.84;1840844;77;21948;-85
2021/03/06 05:45:50;;;;;;;6.47;3.77;;;;;;;-1.02;100.00;101177.38;1848163;77;21182;-84
2021/03/06 05:48:22;;;;;;;5.95;3.67;;;;;;;-0.90;100.00;101180.14;1848370;77;21131;-84
2021/03/06 05:50:52;;;;;;;4.78;2.95;;;;;;;-0.90;100.00;101177.59;1848476;77;21543;-86
2021/03/06 05:53:22;;;;;;;8.60;3.30;;;;;;;-0.87;100.00;101184.36;1848515;77;21614;-87
2021/03/06 05:55:54;;;;;;;5.37;3.17;;;;;;;-0.84;100.00;101184.31;1848614;77;21364;-87
2021/03/06 05:58:30;;;;;;;7.35;3.77;;;;;;;-0.81;100.00;101186.80;1846841;77;21116;-83
2021/03/06 06:01:20;;;;;;;5.67;3.90;;;;;;;-0.77;100.00;101187.58;1834735;77;21415;-86
2021/03/06 06:03:50;;;;;;;4.62;3.20;;;;;;;-0.71;100.00;101200.25;1812553;77;21148;-88
2021/03/06 06:06:19;;;;;;;19.85;4.87;;;;;;;-0.64;100.00;101196.28;1812117;79;21187;-86
2021/03/06 06:08:48;;;;;;;15.90;3.80;;;;;;;-0.58;100.00;101203.42;1816293;77;21144;-86
2021/03/06 06:11:16;;;;;;;6.03;3.72;;;;;;;-0.54;100.00;101201.22;1830597;78;21119;-87
2021/03/06 06:13:43;;;;;;;6.45;4.08;;;;;;;-0.35;100.00;101201.25;1830646;77;21186;-86
2021/03/06 06:16:12;;;;;;;5.95;3.60;;;;;;;-0.21;100.00;101201.42;1831336;78;21634;-86
2021/03/06 06:18:41;;;;;;;6.78;4.33;;;;;;;-0.14;100.00;101211.08;1818466;78;21544;-86
2021/03/06 06:21:39;;;;;;;5.25;3.62;;;;;;;-0.05;100.00;101204.07;1820116;77;21163;-86
2021/03/06 06:24:16;;;;;;;5.22;3.50;;;;;;;-0.01;100.00;101209.52;1796217;79;21128;-86
2021/03/06 06:27:03;;;;;;;6.78;3.80;;;;;;;0.08;100.00;101207.63;1871353;76;22297;-85
2021/03/06 06:29:44;;;;;;;9.45;3.77;;;;;;;0.07;100.00;101212.34;1846800;76;21172;-86
2021/03/06 06:32:15;;;;;;;10.50;3.58;;;;;;;0.06;100.00;101206.39;1847232;77;21484;-87
2021/03/06 06:34:59;;;;;;;7.90;3.50;;;;;;;0.07;100.00;101211.06;1838272;77;21061;-87
2021/03/06 06:37:29;;;;;;;6.20;3.83;;;;;;;0.11;100.00;101210.14;1825540;78;21112;-87
2021/03/06 06:39:59;;;;;;;6.83;3.42;;;;;;;0.19;100.00;101212.09;1834524;76;21097;-88
2021/03/06 06:42:34;;;;;;;4.83;3.35;;;;;;;0.19;100.00;101204.41;1860083;77;21125;-85
2021/03/06 06:45:05;;;;;;;4.75;3.33;;;;;;;0.21;100.00;101206.92;1859971;77;21367;-86
2021/03/06 06:47:39;;;;;;;5.97;3.37;;;;;;;0.30;100.00;101207.55;1841416;76;21235;-86
2021/03/06 06:50:11;;;;;;;6.37;3.50;;;;;;;0.38;100.00;101202.69;1848131;77;21160;-87
2021/03/06 06:52:41;;;;;;;6.72;3.58;;;;;;;0.56;100.00;101194.58;1852244;77;21503;-87
2021/03/06 06:55:12;;;;;;;7.62;3.67;;;;;;;0.86;100.00;101188.28;1790007;80;21103;-87
2021/03/06 06:57:56;;;;;;;;;;;;;;;1.09;100.00;101184.27;1814520;78;21478;-87
2021/03/06 07:00:25;;;;;;;5.83;4.22;;;;;;;1.35;100.00;101176.32;1794479;78;20639;-87
2021/03/06 07:02:58;;;;;;;6.97;4.55;;;;;;;1.53;100.00;101172.39;1808717;77;21662;-87
2021/03/06 07:05:37;;;;;;;10.45;7.40;;;;;;;1.62;100.00;101179.83;1816625;77;21111;-87
2021/03/06 07:08:25;;;;;;;5.78;4.08;;;;;;;1.77;100.00;101181.55;1798799;77;21131;-87
2021/03/06 07:11:25;;;;;;;5.28;4.28;;;;;;;1.76;100.00;101178.16;1817369;79;21393;-88
2021/03/06 07:14:00;;;;;;;7.03;4.80;;;;;;;1.67;100.00;101186.13;1794323;79;21594;-87
2021/03/06 07:16:50;;;;;;;7.67;4.58;;;;;;;1.49;100.00;101184.47;1795118;78;21612;-88
2021/03/06 07:19:19;;;;;;;10.20;4.70;;;;;;;1.28;100.00;101187.22;1799342;78;21127;-89
2021/03/06 07:21:49;;;;;;;6.08;4.17;;;;;;;1.25;100.00;101187.28;1808492;78;21166;-87
2021/03/06 07:24:18;;;;;;;7.07;3.73;;;;;;;1.33;100.00;101187.92;1790015;79;21199;-87
2021/03/06 07:26:51;;;;;;;6.65;3.83;;;;;;;1.53;100.00;101185.22;1794521;79;21837;-86
2021/03/06 07:29:16;;;;;;;5.72;3.55;;;;;;;1.71;100.00;101192.87;1794608;79;21152;-86
2021/03/06 07:31:47;;;;;;;5.60;4.05;;;;;;;1.82;100.00;101191.27;1795543;79;21192;-86
2021/03/06 07:34:18;;;;;;;4.55;3.08;;;;;;;1.75;100.00;101175.19;1792249;79;21571;-86
2021/03/06 07:36:47;;;;;;;;;;;;;;;1.71;100.00;101178.75;1811434;78;21605;-86
2021/03/06 07:39:16;;;;;;;5.30;3.47;;;;;;;1.69;100.00;101182.63;1827642;78;20291;-86
2021/03/06 07:41:58;;;;;;;5.87;3.80;;;;;;;1.55;100.00;101186.03;1812236;78;21133;-86
2021/03/06 07:44:30;;;;;;;6.12;4.20;;;;;;;1.31;100.00;101190.96;1760474;80;21186;-86
2021/03/06 07:46:59;;;;;;;4.62;3.42;;;;;;;1.21;100.00;101192.94;1792061;78;21118;-86
2021/03/06 07:49:35;;;;;;;6.67;3.87;;;;;;;1.25;100.00;101185.55;1785820;80;21429;-86
2021/03/06 07:52:03;;;;;;;6.53;3.27;;;;;;;1.35;100.00;101175.90;1773474;79;21627;-85
2021/03/06 07:54:37;;;;;;;5.42;3.70;;;;;;;1.53;100.00;101174.95;1827054;78;21184;-85
2021/03/06 07:57:06;;;;;;;10.72;3.80;;;;;;;1.76;100.00;101185.86;1827834;78;21215;-85
2021/03/06 07:59:52;;;;;;;9.43;3.37;;;;;;;1.88;100.00;101182.92;1786245;79;21167;-85
2021/03/06 08:02:39;;;;;;;4.75;3.17;;;;;;;1.99;100.00;101194.61;1805578;78;21417;-85
2021/03/06 08:05:45;;;;;;;6.83;3.30;;;;;;;2.11;100.00;101202.39;1793014;80;21162;-86
2021/03/06 08:08:36;;;;;;;6.90;4.33;;;;;;;2.13;100.00;101202.73;1818529;78;21064;-85
2021/03/06 08:11:19;;;;;;;8.65;4.33;;;;;;;2.13;100.00;101209.62;1794950;78;21690;-85
2021/03/06 08:13:52;;;;;;;8.55;5.12;;;;;;;1.92;100.00;101214.95;1818467;78;21175;-84
2021/03/06 08:16:31;;;;;;;8.40;5.35;;;;;;;1.48;100.00;101229.02;1818352;78;21196;-85
2021/03/06 08:19:14;;;;;;;9.80;6.03;;;;;;;1.15;100.00;101229.45;1791626;78;21547;-85
2021/03/06 08:21:45;;;;;;;10.72;5.80;;;;;;;0.92;100.00;101229.60;1764778;80;21134;-85
2021/03/06 08:24:21;;;;;;;6.33;4.45;;;;;;;0.81;100.00;101235.00;1774810;80;21133;-86
2021/03/06 08:27:11;;;;;;;7.10;4.30;;;;;;;0.72;100.00;101235.22;1769897;80;21185;-85
2021/03/06 08:29:46;;;;;;;9.95;4.28;;;;;;;0.66;100.00;101240.50;1767656;78;21320;-85
2021/03/06 08:32:30;;;;;;;9.15;4.90;;;;;;;0.60;100.00;101237.18;1806241;78;21175;-85
2021/03/06 08:35:19;;;;;;;11.83;5.90;;;;;;;0.51;100.00;101239.98;1774638;80;21638;-85
2021/03/06 08:37:49;;;;;;;8.45;5.25;;;;;;;0.48;100.00;101244.34;1784415;80;21222;-85
2021/03/06 08:40:24;;;;;;;6.65;4.12;;;;;;;0.43;100.00;101254.23;1782017;78;21181;-84
2021/03/06 08:42:54;;;;;;;6.95;3.85;;;;;;;0.44;100.00;101247.41;1777000;79;21433;-85
2021/03/06 08:45:26;;;;;;;5.95;3.70;;;;;;;0.42;100.00;101253.00;1799811;79;21233;-84
2021/03/06 08:48:03;;;;;;;5.42;3.45;;;;;;;0.41;100.00;101248.30;1799781;79;21090;-84
2021/03/06 08:50:38;;;;;;;5.12;2.90;;;;;;;0.42;100.00;101251.72;1799837;78;21109;-84
2021/03/06 08:53:14;;;;;;;6.15;2.90;;;;;;;0.40;100.00;101253.47;1786418;78;21133;-84
2021/03/06 08:55:45;;;;;;;5.55;2.55;;;;;;;0.40;100.00;101255.58;1793568;78;21383;-85
2021/03/06 08:58:18;;;;;;;4.90;2.80;;;;;;;0.47;100.00;101257.57;1775363;79;21497;-85
2021/03/06 09:00:51;;;;;;;3.80;2.55;;;;;;;0.56;100.00;101265.06;1782964;79;21757;-85
2021/03/06 09:03:24;;;;;;;3.62;2.05;;;;;;;0.63;100.00;101265.31;1777177;79;21121;-84
2021/03/06 09:05:58;;;;;;;3.25;2.20;;;;;;;0.70;100.00;101275.00;1799579;78;21050;-84
2021/03/06 09:08:28;;;;;;;3.75;2.37;;;;;;;0.74;100.00;101271.92;1791801;78;21566;-85
2021/03/06 09:10:59;;;;;;;4.40;2.47;;;;;;;0.82;100.00;101272.59;1799475;78;21140;-84
2021/03/06 09:13:31;;;;;;;3.52;2.60;;;;;;;0.81;100.00;101274.74;1768192;78;21145;-83
2021/03/06 09:16:03;;;;;;;5.78;2.47;;;;;;;0.80;100.00;101285.05;1799811;79;21122;-83
2021/03/06 09:18:34;;;;;;;5.30;2.77;;;;;;;0.77;100.00;101289.78;1799689;78;21145;-84
2021/03/06 09:21:23;;;;;;;4.05;2.70;;;;;;;0.72;100.00;101289.05;1799868;78;27170;-85
2021/03/06 09:23:54;;;;;;;6.17;3.60;;;;;;;0.72;100.00;101287.77;1799036;78;21205;-85
2021/03/06 09:26:26;;;;;;;5.22;3.58;;;;;;;0.74;100.00;101294.55;1798245;78;21160;-84
2021/03/06 09:28:56;;;;;;;6.67;4.00;;;;;;;0.77;100.00;101288.50;1796010;79;21149;-85
2021/03/06 09:31:31;;;;;;;4.00;3.10;;;;;;;0.83;100.00;101293.50;1796324;79;21174;-85
2021/03/06 09:34:00;;;;;;;8.18;3.42;;;;;;;0.92;100.00;101294.55;1792432;79;21575;-85
2021/03/06 09:36:30;;;;;;;5.58;4.12;;;;;;;0.96;100.00;101293.20;1796039;79;21260;-85
2021/03/06 09:39:02;;;;;;;5.55;3.67;;;;;;;1.02;100.00;101286.62;1796210;79;21117;-85
2021/03/06 09:41:41;;;;;;;5.58;3.35;;;;;;;1.34;100.00;101281.13;1796151;79;21549;-86
2021/03/06 09:44:12;;;;;;;5.75;3.45;;;;;;;1.34;100.00;101281.13;1796000;79;21702;-86
2021/03/06 09:46:40;;;;;;;3.87;1.92;;;;;;;1.45;100.00;101294.54;1791709;79;21446;-86
2021/03/06 09:49:14;;;;;;;4.72;3.05;;;;;;;1.35;100.00;101284.96;1795878;79;21094;-86
2021/03/06 09:51:52;;;;;;;7.95;3.80;;;;;;;1.32;100.00;101294.47;1795903;79;21122;-86
2021/03/06 09:54:24;;;;;;;6.62;3.55;;;;;;;1.25;100.00;101293.31;1795887;79;21189;-85
2021/03/06 09:57:01;;;;;;;4.20;3.17;;;;;;;1.21;100.00;101289.16;1795877;79;21069;-85
2021/03/06 09:59:35;;;;;;;5.08;3.67;;;;;;;1.22;100.00;101298.55;1795917;79;22186;-84
2021/03/06 10:04:39;;;;;;;6.08;3.22;;;;;;;1.26;100.00;101294.17;1795856;79;21166;-84
2021/03/06 10:07:11;;;;;;;7.00;3.80;;;;;;;1.25;100.00;101294.59;1795901;79;21200;-84
2021/03/06 10:09:39;;;;;;;6.92;4.08;;;;;;;1.29;100.00;101291.97;1795967;79;21137;-84
2021/03/06 10:12:10;;;;;;;5.40;4.05;;;;;;;1.28;100.00;101283.44;1795969;79;21150;-84
2021/03/06 10:14:38;;;;;;;;;;;;;;;1.29;100.00;101292.80;1798476;79;21125;-85
2021/03/06 10:17:09;;;;;;;8.05;4.67;;;;;;;1.26;100.00;101286.02;1795906;79;20246;-85
2021/03/06 10:19:46;;;;;;;8.10;3.35;;;;;;;1.28;100.00;101287.71;1795852;79;21121;-85
2021/03/06 10:22:15;;;;;;;12.05;3.95;;;;;;;1.30;100.00;101283.39;1795439;79;21185;-84
2021/03/06 10:25:04;;;;;;;6.28;4.12;;;;;;;1.34;100.00;101301.66;1795967;79;22198;-84
2021/03/06 10:27:47;;;;;;;5.53;2.77;;;;;;;1.37;100.00;101287.48;1795632;79;21200;-83
2021/03/06 10:30:30;;;;;;;4.78;3.40;;;;;;;1.40;100.00;101282.28;1795820;79;21141;-83
2021/03/06 10:33:05;;;;;;;6.65;3.95;;;;;;;1.45;100.00;101288.13;1795863;79;21177;-83
2021/03/06 10:35:42;;;;;;;3.22;1.95;;;;;;;1.57;100.00;101265.96;1796042;79;21459;-83
2021/03/06 10:38:13;;;;;;;7.15;3.70;;;;;;;1.65;100.00;101279.03;1795887;79;21198;-83
2021/03/06 10:40:57;;;;;;;7.03;2.42;;;;;;;1.69;100.00;101281.93;1795851;79;21102;-84
2021/03/06 10:43:35;;;;;;;3.27;2.20;;;;;;;1.80;100.00;101274.78;1795962;79;21157;-83
2021/03/06 10:46:24;;;;;;;4.37;2.70;;;;;;;1.88;96.08;101284.37;1795853;79;21569;-83
2021/03/06 10:48:59;;;;;;;5.05;2.40;;;;;;;1.78;95.36;101271.84;1795970;79;21197;-83
2021/03/06 10:51:49;;;;;;;5.22;2.62;;;;;;;1.72;95.52;101271.13;1795964;79;22119;-83
2021/03/06 10:54:21;;;;;;;3.85;2.65;;;;;;;1.81;94.19;101271.31;1764802;79;21561;-84
2021/03/06 10:57:05;;;;;;;4.53;2.90;;;;;;;1.89;90.90;101277.53;1796003;79;21071;-85
2021/03/06 10:59:35;;;;;;;4.62;2.95;;;;;;;1.88;86.14;101272.81;1795175;79;21087;-85
2021/03/06 11:02:05;;;;;;;5.62;2.50;;;;;;;1.84;86.75;101287.09;1795956;79;21051;-85
2021/03/06 11:04:37;;;;;;;3.00;1.42;;;;;;;1.79;81.54;101280.80;1795968;79;21349;-84
2021/03/06 11:07:08;;;;;;;3.20;1.95;;;;;;;1.89;77.96;101268.53;1795841;79;21576;-85
2021/03/06 11:09:39;;;;;;;2.87;1.67;;;;;;;2.02;78.68;101272.89;1795800;79;21134;-85
2021/03/06 11:12:25;;;;;;;2.27;1.55;;;;;;;2.13;74.87;101266.97;1795896;79;21177;-85
2021/03/06 11:15:15;;;;;;;3.17;2.08;;;;;;;2.17;73.33;101276.72;1796131;79;21161;-85
2021/03/06 11:17:45;;;;;;;2.55;1.67;;;;;;;2.09;71.69;101279.53;1795670;79;21374;-85
2021/03/06 11:20:16;;;;;;;2.50;1.82;;;;;;;1.97;69.29;101275.59;1796014;79;21192;-85
2021/03/06 11:22:45;;;;;;;1.67;1.37;;;;;;;1.86;65.52;101284.02;1789041;79;21188;-81
2021/03/06 11:25:16;;;;;;;2.67;1.55;;;;;;;1.77;69.85;101287.70;1776781;79;21161;-83
2021/03/06 11:27:57;;;;;;;2.90;2.00;;;;;;;1.77;64.04;101299.26;1764669;80;21213;-83
2021/03/06 11:30:35;;;;;;;3.25;1.98;;;;;;;1.80;67.30;101285.06;1764725;81;21495;-83
2021/03/06 11:33:08;;;;;;;2.98;1.65;;;;;;;1.91;64.82;101286.04;1764415;80;21179;-82
2021/03/06 11:35:38;;;;;;;3.62;1.37;;;;;;;2.02;65.40;101280.14;1764542;81;21135;-82
2021/03/06 11:38:08;;;;;;;3.22;1.50;;;;;;;2.10;62.30;101276.50;1774406;79;21609;-82
2021/03/06 11:40:40;;;;;;;2.80;1.73;;;;;;;2.11;61.11;101276.48;1796636;79;21145;-83
2021/03/06 11:43:08;;;;;;;3.85;1.40;;;;;;;2.14;57.71;101280.22;1796436;79;22265;-82
2021/03/06 11:45:38;;;;;;;2.35;1.75;;;;;;;2.13;62.85;101298.27;1796381;79;21221;-83
2021/03/06 11:48:07;;;;;;;2.85;1.50;;;;;;;2.04;57.76;101304.06;1779588;79;21135;-83
2021/03/06 11:50:47;;;;;;;2.17;1.50;;;;;;;1.93;58.52;101295.80;1764806;80;21144;-83
2021/03/06 11:53:17;;;;;;;3.27;1.50;;;;;;;1.87;56.22;101297.27;1764818;81;21545;-82
2021/03/06 11:55:45;;;;;;;3.80;2.30;;;;;;;1.89;62.06;101287.80;1764777;81;22089;-83
2021/03/06 11:58:15;;;;;;;2.83;1.90;;;;;;;2.01;64.45;101289.19;1770946;79;21657;-83
2021/03/06 12:00:43;;;;;;;4.30;2.17;;;;;;;2.11;59.04;101297.03;1764673;81;21156;-83
2021/03/06 12:03:11;;;;;;;4.05;2.15;;;;;;;2.07;60.53;101285.14;1764720;80;21169;-83
2021/03/06 12:05:39;;;;;;;2.27;1.67;;;;;;;2.05;61.96;101290.77;1764716;81;21455;-83
2021/03/06 12:08:08;;;;;;;5.60;3.27;;;;;;;2.13;64.87;101318.82;1764793;81;21204;-83
2021/03/06 12:10:44;;;;;;;5.87;1.82;;;;;;;2.13;62.50;101305.52;1764731;81;21169;-83
2021/03/06 12:13:15;;;;;;;6.83;3.22;;;;;;;2.00;62.69;101310.61;1764713;80;21059;-83
2021/03/06 12:15:43;;;;;;;4.97;2.10;;;;;;;1.96;67.95;101306.46;1772952;79;21198;-83
2021/03/06 12:18:14;;;;;;;3.25;1.25;;;;;;;2.01;67.19;101318.27;1784404;79;21157;-82
2021/03/06 12:20:45;;;;;;;4.17;2.40;;;;;;;2.09;60.52;101315.50;1771000;79;21234;-82
2021/03/06 12:23:13;;;;;;;3.25;2.02;;;;;;;2.23;71.84;101307.83;1764916;80;21097;-83
2021/03/06 12:25:42;;;;;;;2.22;1.55;;;;;;;2.35;74.89;101309.59;1764831;81;21478;-82
2021/03/06 12:28:11;;;;;;;3.62;2.17;;;;;;;2.31;65.75;101317.44;1771352;79;21155;-82
2021/03/06 12:30:43;;;;;;;2.52;1.80;;;;;;;2.03;66.49;101345.22;1778555;80;21674;-82
2021/03/06 12:33:11;;;;;;;3.50;2.40;;;;;;;1.68;66.72;101334.16;1797252;79;21368;-82
2021/03/06 12:35:41;;;;;;;4.30;2.55;;;;;;;1.52;69.58;101336.30;1778330;80;21147;-85
2021/03/06 12:38:09;;;;;;;6.35;2.30;;;;;;;1.55;72.38;101336.20;1796799;79;21215;-82